sensor_id;sensor_type;location;lat;lon;timestamp;P1;durP1;ratioP1;P2;durP2;ratioP2
70715;SDS011;59053;50.832;12.882;2022-08-07T00:01:24;19.13;;;10.43;;
70715;SDS011;59053;50.832;12.882;2022-08-07T00:03:49;19.27;;;11.03;;
70715;SDS011;59053;50.832;12.882;2022-08-07T00:06:15;18.13;;;9.75;;
70715;SDS011;59053;50.832;12.882;2022-08-07T00:08:41;17.63;;;9.50;;
70715;SDS011;59053;50.832;12.882;2022-08-07T00:11:06;16.67;;;9.10;;
70715;SDS011;59053;50.832;12.882;2022-08-07T00:13:32;12.60;;;7.50;;
70715;SDS011;59053;50.832;12.882;2022-08-07T00:15:58;11.70;;;7.05;;
70715;SDS011;59053;50.832;12.882;2022-08-07T00:18:24;13.23;;;6.77;;
70715;SDS011;59053;50.832;12.882;2022-08-07T00:20:53;10.90;;;6.60;;
70715;SDS011;59053;50.832;12.882;2022-08-07T00:23:20;13.65;;;7.43;;
70715;SDS011;59053;50.832;12.882;2022-08-07T00:25:46;15.37;;;7.93;;
70715;SDS011;59053;50.832;12.882;2022-08-07T00:28:11;14.73;;;7.07;;
70715;SDS011;59053;50.832;12.882;2022-08-07T00:30:37;13.07;;;6.13;;
70715;SDS011;59053;50.832;12.882;2022-08-07T00:33:02;10.43;;;5.73;;
70715;SDS011;59053;50.832;12.882;2022-08-07T00:35:28;9.43;;;5.90;;
70715;SDS011;59053;50.832;12.882;2022-08-07T00:37:53;11.17;;;5.97;;
70715;SDS011;59053;50.832;12.882;2022-08-07T00:40:19;10.00;;;5.90;;
70715;SDS011;59053;50.832;12.882;2022-08-07T00:42:44;10.97;;;5.73;;
70715;SDS011;59053;50.832;12.882;2022-08-07T00:45:10;10.52;;;6.00;;
70715;SDS011;59053;50.832;12.882;2022-08-07T00:47:36;12.07;;;6.50;;
70715;SDS011;59053;50.832;12.882;2022-08-07T00:50:02;12.30;;;7.05;;
70715;SDS011;59053;50.832;12.882;2022-08-07T00:52:28;13.45;;;7.57;;
70715;SDS011;59053;50.832;12.882;2022-08-07T00:54:54;12.53;;;7.07;;
70715;SDS011;59053;50.832;12.882;2022-08-07T00:57:20;11.53;;;6.80;;
70715;SDS011;59053;50.832;12.882;2022-08-07T00:59:49;11.40;;;6.50;;
70715;SDS011;59053;50.832;12.882;2022-08-07T01:02:14;10.47;;;6.27;;
70715;SDS011;59053;50.832;12.882;2022-08-07T01:04:40;12.43;;;6.20;;
70715;SDS011;59053;50.832;12.882;2022-08-07T01:07:05;11.60;;;5.85;;
70715;SDS011;59053;50.832;12.882;2022-08-07T01:09:31;11.50;;;5.70;;
70715;SDS011;59053;50.832;12.882;2022-08-07T01:11:56;9.57;;;5.63;;
70715;SDS011;59053;50.832;12.882;2022-08-07T01:14:22;14.23;;;7.97;;
70715;SDS011;59053;50.832;12.882;2022-08-07T01:16:48;17.60;;;11.27;;
70715;SDS011;59053;50.832;12.882;2022-08-07T01:19:16;18.48;;;10.93;;
70715;SDS011;59053;50.832;12.882;2022-08-07T01:21:42;18.03;;;10.23;;
70715;SDS011;59053;50.832;12.882;2022-08-07T01:24:09;14.57;;;8.60;;
70715;SDS011;59053;50.832;12.882;2022-08-07T01:26:34;13.73;;;8.10;;
70715;SDS011;59053;50.832;12.882;2022-08-07T01:29:00;16.63;;;8.80;;
70715;SDS011;59053;50.832;12.882;2022-08-07T01:31:28;15.18;;;9.10;;
70715;SDS011;59053;50.832;12.882;2022-08-07T01:33:57;17.27;;;10.53;;
70715;SDS011;59053;50.832;12.882;2022-08-07T01:36:28;17.05;;;9.27;;
70715;SDS011;59053;50.832;12.882;2022-08-07T01:38:54;13.68;;;8.73;;
70715;SDS011;59053;50.832;12.882;2022-08-07T01:41:22;14.38;;;8.07;;
70715;SDS011;59053;50.832;12.882;2022-08-07T01:43:48;12.85;;;7.50;;
70715;SDS011;59053;50.832;12.882;2022-08-07T01:46:18;13.57;;;7.20;;
70715;SDS011;59053;50.832;12.882;2022-08-07T01:48:44;11.05;;;5.88;;
70715;SDS011;59053;50.832;12.882;2022-08-07T01:51:22;8.80;;;5.13;;
70715;SDS011;59053;50.832;12.882;2022-08-07T01:53:49;9.38;;;5.00;;
70715;SDS011;59053;50.832;12.882;2022-08-07T01:56:24;10.20;;;5.40;;
70715;SDS011;59053;50.832;12.882;2022-08-07T01:58:52;10.27;;;5.77;;
70715;SDS011;59053;50.832;12.882;2022-08-07T02:01:29;11.20;;;5.70;;
70715;SDS011;59053;50.832;12.882;2022-08-07T02:03:58;12.18;;;5.65;;
70715;SDS011;59053;50.832;12.882;2022-08-07T02:06:29;9.73;;;5.30;;
70715;SDS011;59053;50.832;12.882;2022-08-07T02:08:57;12.10;;;5.30;;
70715;SDS011;59053;50.832;12.882;2022-08-07T02:11:25;9.10;;;5.00;;
70715;SDS011;59053;50.832;12.882;2022-08-07T02:13:51;8.75;;;4.90;;
70715;SDS011;59053;50.832;12.882;2022-08-07T02:16:18;8.65;;;4.68;;
70715;SDS011;59053;50.832;12.882;2022-08-07T02:18:46;9.90;;;4.40;;
70715;SDS011;59053;50.832;12.882;2022-08-07T02:21:14;10.38;;;4.85;;
70715;SDS011;59053;50.832;12.882;2022-08-07T02:23:41;9.35;;;4.93;;
70715;SDS011;59053;50.832;12.882;2022-08-07T02:26:07;7.50;;;4.20;;
70715;SDS011;59053;50.832;12.882;2022-08-07T02:28:33;8.83;;;4.70;;
70715;SDS011;59053;50.832;12.882;2022-08-07T02:31:02;7.55;;;4.47;;
70715;SDS011;59053;50.832;12.882;2022-08-07T02:33:30;9.00;;;4.32;;
70715;SDS011;59053;50.832;12.882;2022-08-07T02:35:56;7.53;;;4.22;;
70715;SDS011;59053;50.832;12.882;2022-08-07T02:38:27;8.73;;;4.45;;
70715;SDS011;59053;50.832;12.882;2022-08-07T02:40:54;8.13;;;4.10;;
70715;SDS011;59053;50.832;12.882;2022-08-07T02:43:20;9.27;;;4.50;;
70715;SDS011;59053;50.832;12.882;2022-08-07T02:45:46;12.45;;;4.70;;
70715;SDS011;59053;50.832;12.882;2022-08-07T02:48:13;8.93;;;4.83;;
70715;SDS011;59053;50.832;12.882;2022-08-07T02:50:40;8.43;;;4.65;;
70715;SDS011;59053;50.832;12.882;2022-08-07T02:53:08;7.00;;;4.20;;
70715;SDS011;59053;50.832;12.882;2022-08-07T02:55:36;8.43;;;4.30;;
70715;SDS011;59053;50.832;12.882;2022-08-07T02:58:06;9.63;;;4.32;;
70715;SDS011;59053;50.832;12.882;2022-08-07T03:00:37;7.90;;;4.20;;
70715;SDS011;59053;50.832;12.882;2022-08-07T03:03:04;7.47;;;4.20;;
70715;SDS011;59053;50.832;12.882;2022-08-07T03:05:30;9.07;;;4.40;;
70715;SDS011;59053;50.832;12.882;2022-08-07T03:07:56;8.50;;;4.35;;
70715;SDS011;59053;50.832;12.882;2022-08-07T03:10:22;8.10;;;4.47;;
70715;SDS011;59053;50.832;12.882;2022-08-07T03:12:48;6.13;;;3.87;;
70715;SDS011;59053;50.832;12.882;2022-08-07T03:15:16;7.40;;;4.05;;
70715;SDS011;59053;50.832;12.882;2022-08-07T03:17:42;6.93;;;3.70;;
70715;SDS011;59053;50.832;12.882;2022-08-07T03:20:09;7.15;;;4.05;;
70715;SDS011;59053;50.832;12.882;2022-08-07T03:22:35;7.57;;;4.05;;
70715;SDS011;59053;50.832;12.882;2022-08-07T03:25:02;12.53;;;4.30;;
70715;SDS011;59053;50.832;12.882;2022-08-07T03:27:35;7.57;;;3.90;;
70715;SDS011;59053;50.832;12.882;2022-08-07T03:30:02;6.70;;;3.88;;
70715;SDS011;59053;50.832;12.882;2022-08-07T03:32:32;8.85;;;3.90;;
70715;SDS011;59053;50.832;12.882;2022-08-07T03:34:59;8.95;;;3.92;;
70715;SDS011;59053;50.832;12.882;2022-08-07T03:37:27;8.00;;;4.00;;
70715;SDS011;59053;50.832;12.882;2022-08-07T03:39:54;6.72;;;3.63;;
70715;SDS011;59053;50.832;12.882;2022-08-07T03:42:19;8.10;;;3.95;;
70715;SDS011;59053;50.832;12.882;2022-08-07T03:44:47;8.57;;;3.80;;
70715;SDS011;59053;50.832;12.882;2022-08-07T03:47:13;6.57;;;3.70;;
70715;SDS011;59053;50.832;12.882;2022-08-07T03:49:41;6.32;;;3.42;;
70715;SDS011;59053;50.832;12.882;2022-08-07T03:52:07;6.55;;;3.70;;
70715;SDS011;59053;50.832;12.882;2022-08-07T03:54:34;8.60;;;3.85;;
70715;SDS011;59053;50.832;12.882;2022-08-07T03:57:03;6.40;;;3.60;;
70715;SDS011;59053;50.832;12.882;2022-08-07T03:59:30;6.25;;;3.42;;
70715;SDS011;59053;50.832;12.882;2022-08-07T04:01:56;8.63;;;3.70;;
70715;SDS011;59053;50.832;12.882;2022-08-07T04:04:22;7.50;;;3.70;;
70715;SDS011;59053;50.832;12.882;2022-08-07T04:06:52;5.47;;;3.20;;
70715;SDS011;59053;50.832;12.882;2022-08-07T04:09:19;7.63;;;3.23;;
70715;SDS011;59053;50.832;12.882;2022-08-07T04:11:45;6.68;;;3.10;;
70715;SDS011;59053;50.832;12.882;2022-08-07T04:14:11;7.28;;;3.40;;
70715;SDS011;59053;50.832;12.882;2022-08-07T04:16:37;6.37;;;3.53;;
70715;SDS011;59053;50.832;12.882;2022-08-07T04:19:03;6.20;;;3.13;;
70715;SDS011;59053;50.832;12.882;2022-08-07T04:21:29;6.88;;;3.17;;
70715;SDS011;59053;50.832;12.882;2022-08-07T04:23:55;5.95;;;3.40;;
70715;SDS011;59053;50.832;12.882;2022-08-07T04:26:21;7.53;;;3.73;;
70715;SDS011;59053;50.832;12.882;2022-08-07T04:28:48;5.85;;;3.42;;
70715;SDS011;59053;50.832;12.882;2022-08-07T04:31:13;8.23;;;4.03;;
70715;SDS011;59053;50.832;12.882;2022-08-07T04:33:40;8.20;;;3.87;;
70715;SDS011;59053;50.832;12.882;2022-08-07T04:36:06;8.68;;;4.30;;
70715;SDS011;59053;50.832;12.882;2022-08-07T04:38:33;8.77;;;3.88;;
70715;SDS011;59053;50.832;12.882;2022-08-07T04:41:00;7.20;;;3.47;;
70715;SDS011;59053;50.832;12.882;2022-08-07T04:43:34;8.68;;;3.22;;
70715;SDS011;59053;50.832;12.882;2022-08-07T04:46:02;6.38;;;3.40;;
70715;SDS011;59053;50.832;12.882;2022-08-07T04:51:36;5.65;;;3.30;;
70715;SDS011;59053;50.832;12.882;2022-08-07T04:54:21;5.67;;;3.40;;
70715;SDS011;59053;50.832;12.882;2022-08-07T04:57:03;5.47;;;3.30;;
70715;SDS011;59053;50.832;12.882;2022-08-07T04:59:36;6.47;;;3.00;;
70715;SDS011;59053;50.832;12.882;2022-08-07T05:02:08;4.90;;;2.80;;
70715;SDS011;59053;50.832;12.882;2022-08-07T05:07:16;4.47;;;2.50;;
70715;SDS011;59053;50.832;12.882;2022-08-07T05:12:35;5.72;;;2.60;;
70715;SDS011;59053;50.832;12.882;2022-08-07T05:15:06;4.70;;;2.50;;
70715;SDS011;59053;50.832;12.882;2022-08-07T05:17:52;5.13;;;2.50;;
70715;SDS011;59053;50.832;12.882;2022-08-07T05:20:23;4.00;;;2.40;;
70715;SDS011;59053;50.832;12.882;2022-08-07T05:22:53;3.75;;;2.50;;
70715;SDS011;59053;50.832;12.882;2022-08-07T05:25:22;3.25;;;2.30;;
70715;SDS011;59053;50.832;12.882;2022-08-07T05:27:48;3.85;;;2.40;;
70715;SDS011;59053;50.832;12.882;2022-08-07T05:30:14;4.30;;;2.78;;
70715;SDS011;59053;50.832;12.882;2022-08-07T05:32:41;3.63;;;2.20;;
70715;SDS011;59053;50.832;12.882;2022-08-07T05:35:08;4.47;;;2.25;;
70715;SDS011;59053;50.832;12.882;2022-08-07T05:37:34;5.07;;;2.42;;
70715;SDS011;59053;50.832;12.882;2022-08-07T05:40:03;4.18;;;2.60;;
70715;SDS011;59053;50.832;12.882;2022-08-07T05:42:29;4.03;;;2.50;;
70715;SDS011;59053;50.832;12.882;2022-08-07T05:44:55;4.65;;;2.42;;
70715;SDS011;59053;50.832;12.882;2022-08-07T05:47:21;4.47;;;2.10;;
70715;SDS011;59053;50.832;12.882;2022-08-07T05:49:48;4.10;;;2.20;;
70715;SDS011;59053;50.832;12.882;2022-08-07T05:52:19;3.47;;;2.17;;
70715;SDS011;59053;50.832;12.882;2022-08-07T05:54:45;5.30;;;2.40;;
70715;SDS011;59053;50.832;12.882;2022-08-07T05:57:13;3.78;;;2.13;;
70715;SDS011;59053;50.832;12.882;2022-08-07T05:59:39;6.43;;;2.33;;
70715;SDS011;59053;50.832;12.882;2022-08-07T06:02:06;3.80;;;2.05;;
70715;SDS011;59053;50.832;12.882;2022-08-07T06:04:33;3.28;;;2.20;;
70715;SDS011;59053;50.832;12.882;2022-08-07T06:07:02;3.83;;;2.10;;
70715;SDS011;59053;50.832;12.882;2022-08-07T06:09:31;4.75;;;2.42;;
70715;SDS011;59053;50.832;12.882;2022-08-07T06:11:57;5.63;;;2.22;;
70715;SDS011;59053;50.832;12.882;2022-08-07T06:14:24;3.05;;;2.20;;
70715;SDS011;59053;50.832;12.882;2022-08-07T06:16:54;4.43;;;2.33;;
70715;SDS011;59053;50.832;12.882;2022-08-07T06:19:21;3.97;;;2.10;;
70715;SDS011;59053;50.832;12.882;2022-08-07T06:21:47;3.42;;;2.10;;
70715;SDS011;59053;50.832;12.882;2022-08-07T06:24:14;3.83;;;2.30;;
70715;SDS011;59053;50.832;12.882;2022-08-07T06:26:40;2.40;;;1.90;;
70715;SDS011;59053;50.832;12.882;2022-08-07T06:29:06;3.40;;;2.20;;
70715;SDS011;59053;50.832;12.882;2022-08-07T06:31:31;3.87;;;2.03;;
70715;SDS011;59053;50.832;12.882;2022-08-07T06:33:57;4.30;;;2.00;;
70715;SDS011;59053;50.832;12.882;2022-08-07T06:36:22;4.75;;;1.90;;
70715;SDS011;59053;50.832;12.882;2022-08-07T06:38:53;3.77;;;1.90;;
70715;SDS011;59053;50.832;12.882;2022-08-07T06:41:27;3.17;;;1.80;;
70715;SDS011;59053;50.832;12.882;2022-08-07T06:43:55;2.92;;;1.90;;
70715;SDS011;59053;50.832;12.882;2022-08-07T06:46:23;5.20;;;2.00;;
70715;SDS011;59053;50.832;12.882;2022-08-07T06:48:48;3.85;;;1.92;;
70715;SDS011;59053;50.832;12.882;2022-08-07T06:51:20;3.08;;;1.90;;
70715;SDS011;59053;50.832;12.882;2022-08-07T06:53:49;3.17;;;1.90;;
70715;SDS011;59053;50.832;12.882;2022-08-07T06:56:16;2.45;;;1.80;;
70715;SDS011;59053;50.832;12.882;2022-08-07T06:59:03;3.10;;;1.80;;
70715;SDS011;59053;50.832;12.882;2022-08-07T07:01:34;1.95;;;1.60;;
70715;SDS011;59053;50.832;12.882;2022-08-07T07:04:01;2.88;;;1.50;;
70715;SDS011;59053;50.832;12.882;2022-08-07T07:06:29;2.53;;;1.40;;
70715;SDS011;59053;50.832;12.882;2022-08-07T07:08:55;2.42;;;1.50;;
70715;SDS011;59053;50.832;12.882;2022-08-07T07:11:20;2.40;;;1.70;;
70715;SDS011;59053;50.832;12.882;2022-08-07T07:13:46;2.70;;;1.35;;
70715;SDS011;59053;50.832;12.882;2022-08-07T07:16:15;4.47;;;1.50;;
70715;SDS011;59053;50.832;12.882;2022-08-07T07:18:50;2.90;;;1.50;;
70715;SDS011;59053;50.832;12.882;2022-08-07T07:21:24;2.40;;;1.50;;
70715;SDS011;59053;50.832;12.882;2022-08-07T07:23:51;2.30;;;1.20;;
70715;SDS011;59053;50.832;12.882;2022-08-07T07:26:17;2.03;;;1.33;;
70715;SDS011;59053;50.832;12.882;2022-08-07T07:28:53;3.00;;;1.30;;
70715;SDS011;59053;50.832;12.882;2022-08-07T07:31:27;1.92;;;1.30;;
70715;SDS011;59053;50.832;12.882;2022-08-07T07:33:58;1.85;;;1.40;;
70715;SDS011;59053;50.832;12.882;2022-08-07T07:36:25;3.25;;;1.50;;
70715;SDS011;59053;50.832;12.882;2022-08-07T07:38:54;2.30;;;1.30;;
70715;SDS011;59053;50.832;12.882;2022-08-07T07:41:20;3.63;;;1.30;;
70715;SDS011;59053;50.832;12.882;2022-08-07T07:43:46;1.98;;;1.10;;
70715;SDS011;59053;50.832;12.882;2022-08-07T07:46:15;2.33;;;1.40;;
70715;SDS011;59053;50.832;12.882;2022-08-07T07:48:41;1.20;;;1.10;;
70715;SDS011;59053;50.832;12.882;2022-08-07T07:51:06;5.00;;;1.40;;
70715;SDS011;59053;50.832;12.882;2022-08-07T07:53:32;2.13;;;1.27;;
70715;SDS011;59053;50.832;12.882;2022-08-07T07:55:58;1.90;;;1.20;;
70715;SDS011;59053;50.832;12.882;2022-08-07T07:58:25;2.40;;;1.30;;
70715;SDS011;59053;50.832;12.882;2022-08-07T08:00:53;3.73;;;1.30;;
70715;SDS011;59053;50.832;12.882;2022-08-07T08:03:19;1.60;;;1.20;;
70715;SDS011;59053;50.832;12.882;2022-08-07T08:05:45;1.67;;;1.10;;
70715;SDS011;59053;50.832;12.882;2022-08-07T08:08:11;2.13;;;1.20;;
70715;SDS011;59053;50.832;12.882;2022-08-07T08:10:37;2.97;;;1.25;;
70715;SDS011;59053;50.832;12.882;2022-08-07T08:13:02;2.80;;;1.20;;
70715;SDS011;59053;50.832;12.882;2022-08-07T08:15:30;2.50;;;1.15;;
70715;SDS011;59053;50.832;12.882;2022-08-07T08:17:58;1.40;;;1.00;;
70715;SDS011;59053;50.832;12.882;2022-08-07T08:20:24;2.40;;;1.00;;
70715;SDS011;59053;50.832;12.882;2022-08-07T08:22:52;2.77;;;0.93;;
70715;SDS011;59053;50.832;12.882;2022-08-07T08:25:38;3.35;;;1.10;;
70715;SDS011;59053;50.832;12.882;2022-08-07T08:28:26;1.45;;;1.10;;
70715;SDS011;59053;50.832;12.882;2022-08-07T08:30:54;1.35;;;0.90;;
70715;SDS011;59053;50.832;12.882;2022-08-07T08:33:22;1.45;;;1.00;;
70715;SDS011;59053;50.832;12.882;2022-08-07T08:35:48;2.07;;;1.00;;
70715;SDS011;59053;50.832;12.882;2022-08-07T08:38:16;2.25;;;1.10;;
70715;SDS011;59053;50.832;12.882;2022-08-07T08:40:52;3.67;;;1.30;;
70715;SDS011;59053;50.832;12.882;2022-08-07T08:43:22;1.88;;;1.00;;
70715;SDS011;59053;50.832;12.882;2022-08-07T08:49:30;0.70;;;0.70;;
70715;SDS011;59053;50.832;12.882;2022-08-07T08:52:04;1.80;;;0.80;;
70715;SDS011;59053;50.832;12.882;2022-08-07T08:54:33;1.98;;;1.00;;
70715;SDS011;59053;50.832;12.882;2022-08-07T08:57:04;1.10;;;0.88;;
70715;SDS011;59053;50.832;12.882;2022-08-07T08:59:33;2.78;;;1.00;;
70715;SDS011;59053;50.832;12.882;2022-08-07T09:02:27;2.70;;;0.87;;
70715;SDS011;59053;50.832;12.882;2022-08-07T09:14:00;2.55;;;1.40;;
70715;SDS011;59053;50.832;12.882;2022-08-07T09:19:24;1.10;;;1.00;;
70715;SDS011;59053;50.832;12.882;2022-08-07T09:22:20;1.30;;;0.80;;
70715;SDS011;59053;50.832;12.882;2022-08-07T09:25:13;1.95;;;1.20;;
70715;SDS011;59053;50.832;12.882;2022-08-07T09:38:24;0.90;;;0.90;;
70715;SDS011;59053;50.832;12.882;2022-08-07T09:43:55;1.20;;;0.90;;
70715;SDS011;59053;50.832;12.882;2022-08-07T09:46:35;1.45;;;0.90;;
70715;SDS011;59053;50.832;12.882;2022-08-07T09:49:17;1.42;;;1.00;;
70715;SDS011;59053;50.832;12.882;2022-08-07T09:51:55;1.23;;;1.10;;
70715;SDS011;59053;50.832;12.882;2022-08-07T09:54:44;1.20;;;1.10;;
70715;SDS011;59053;50.832;12.882;2022-08-07T10:00:10;1.95;;;1.00;;
70715;SDS011;59053;50.832;12.882;2022-08-07T10:11:36;2.03;;;1.07;;
70715;SDS011;59053;50.832;12.882;2022-08-07T10:20:18;1.83;;;1.00;;
70715;SDS011;59053;50.832;12.882;2022-08-07T10:22:56;1.42;;;1.10;;
70715;SDS011;59053;50.832;12.882;2022-08-07T10:25:49;1.83;;;1.00;;
70715;SDS011;59053;50.832;12.882;2022-08-07T10:34:24;1.60;;;1.00;;
70715;SDS011;59053;50.832;12.882;2022-08-07T10:36:59;1.77;;;1.02;;
70715;SDS011;59053;50.832;12.882;2022-08-07T10:42:37;2.67;;;1.00;;
70715;SDS011;59053;50.832;12.882;2022-08-07T10:45:14;2.17;;;1.35;;
70715;SDS011;59053;50.832;12.882;2022-08-07T10:50:59;1.05;;;0.90;;
70715;SDS011;59053;50.832;12.882;2022-08-07T10:56:35;2.40;;;1.05;;
70715;SDS011;59053;50.832;12.882;2022-08-07T11:10:27;2.22;;;0.95;;
70715;SDS011;59053;50.832;12.882;2022-08-07T11:13:00;6.00;;;1.00;;
70715;SDS011;59053;50.832;12.882;2022-08-07T11:15:30;0.88;;;0.88;;
70715;SDS011;59053;50.832;12.882;2022-08-07T11:18:20;1.35;;;1.00;;
70715;SDS011;59053;50.832;12.882;2022-08-07T11:21:06;1.15;;;0.90;;
70715;SDS011;59053;50.832;12.882;2022-08-07T11:23:53;1.27;;;0.95;;
70715;SDS011;59053;50.832;12.882;2022-08-07T11:27:06;2.07;;;1.00;;
70715;SDS011;59053;50.832;12.882;2022-08-07T11:32:16;3.50;;;1.00;;
70715;SDS011;59053;50.832;12.882;2022-08-07T11:34:46;2.20;;;0.90;;
70715;SDS011;59053;50.832;12.882;2022-08-07T11:39:59;1.53;;;1.00;;
70715;SDS011;59053;50.832;12.882;2022-08-07T11:50:28;2.17;;;1.00;;
70715;SDS011;59053;50.832;12.882;2022-08-07T11:53:09;1.67;;;1.00;;
70715;SDS011;59053;50.832;12.882;2022-08-07T11:55:53;1.10;;;1.00;;
70715;SDS011;59053;50.832;12.882;2022-08-07T11:58:34;1.80;;;0.77;;
70715;SDS011;59053;50.832;12.882;2022-08-07T12:06:48;1.17;;;0.70;;
70715;SDS011;59053;50.832;12.882;2022-08-07T12:09:25;1.20;;;1.02;;
70715;SDS011;59053;50.832;12.882;2022-08-07T12:14:26;1.52;;;1.00;;
70715;SDS011;59053;50.832;12.882;2022-08-07T12:16:55;2.70;;;1.13;;
70715;SDS011;59053;50.832;12.882;2022-08-07T12:22:07;1.40;;;1.05;;
70715;SDS011;59053;50.832;12.882;2022-08-07T12:27:36;2.08;;;1.00;;
70715;SDS011;59053;50.832;12.882;2022-08-07T12:30:06;1.50;;;0.90;;
70715;SDS011;59053;50.832;12.882;2022-08-07T12:32:37;1.50;;;1.03;;
70715;SDS011;59053;50.832;12.882;2022-08-07T12:35:24;2.10;;;0.80;;
70715;SDS011;59053;50.832;12.882;2022-08-07T12:37:51;1.33;;;1.00;;
70715;SDS011;59053;50.832;12.882;2022-08-07T12:40:19;1.15;;;1.00;;
70715;SDS011;59053;50.832;12.882;2022-08-07T12:42:50;3.03;;;1.10;;
70715;SDS011;59053;50.832;12.882;2022-08-07T12:45:18;1.73;;;1.10;;
70715;SDS011;59053;50.832;12.882;2022-08-07T12:48:01;1.75;;;0.90;;
70715;SDS011;59053;50.832;12.882;2022-08-07T12:50:34;1.30;;;0.90;;
70715;SDS011;59053;50.832;12.882;2022-08-07T12:56:28;1.58;;;1.00;;
70715;SDS011;59053;50.832;12.882;2022-08-07T12:58:56;1.87;;;0.90;;
70715;SDS011;59053;50.832;12.882;2022-08-07T13:04:09;1.10;;;0.90;;
70715;SDS011;59053;50.832;12.882;2022-08-07T13:09:45;2.05;;;1.00;;
70715;SDS011;59053;50.832;12.882;2022-08-07T13:12:39;1.80;;;1.00;;
70715;SDS011;59053;50.832;12.882;2022-08-07T13:15:42;1.90;;;1.10;;
70715;SDS011;59053;50.832;12.882;2022-08-07T13:18:29;1.17;;;1.10;;
70715;SDS011;59053;50.832;12.882;2022-08-07T13:23:44;2.40;;;1.00;;
70715;SDS011;59053;50.832;12.882;2022-08-07T13:26:16;3.30;;;1.20;;
70715;SDS011;59053;50.832;12.882;2022-08-07T13:28:53;1.42;;;1.00;;
70715;SDS011;59053;50.832;12.882;2022-08-07T13:31:34;1.15;;;0.90;;
70715;SDS011;59053;50.832;12.882;2022-08-07T13:36:44;1.83;;;1.00;;
70715;SDS011;59053;50.832;12.882;2022-08-07T13:39:16;1.87;;;1.20;;
70715;SDS011;59053;50.832;12.882;2022-08-07T13:41:49;1.55;;;1.13;;
70715;SDS011;59053;50.832;12.882;2022-08-07T13:44:20;3.05;;;1.20;;
70715;SDS011;59053;50.832;12.882;2022-08-07T13:46:49;2.35;;;1.10;;
70715;SDS011;59053;50.832;12.882;2022-08-07T13:49:19;1.60;;;1.30;;
70715;SDS011;59053;50.832;12.882;2022-08-07T13:51:45;1.57;;;1.17;;
70715;SDS011;59053;50.832;12.882;2022-08-07T13:54:11;1.83;;;1.15;;
70715;SDS011;59053;50.832;12.882;2022-08-07T13:56:38;2.95;;;1.25;;
70715;SDS011;59053;50.832;12.882;2022-08-07T13:59:10;1.85;;;1.30;;
70715;SDS011;59053;50.832;12.882;2022-08-07T14:01:42;2.03;;;1.30;;
70715;SDS011;59053;50.832;12.882;2022-08-07T14:04:10;1.50;;;1.13;;
70715;SDS011;59053;50.832;12.882;2022-08-07T14:06:43;1.92;;;1.10;;
70715;SDS011;59053;50.832;12.882;2022-08-07T14:11:53;3.83;;;1.25;;
70715;SDS011;59053;50.832;12.882;2022-08-07T14:14:38;3.28;;;1.27;;
70715;SDS011;59053;50.832;12.882;2022-08-07T14:17:06;1.73;;;1.20;;
70715;SDS011;59053;50.832;12.882;2022-08-07T14:19:34;1.30;;;1.10;;
70715;SDS011;59053;50.832;12.882;2022-08-07T14:22:02;2.55;;;1.30;;
70715;SDS011;59053;50.832;12.882;2022-08-07T14:27:04;2.00;;;1.25;;
70715;SDS011;59053;50.832;12.882;2022-08-07T14:29:32;2.20;;;1.30;;
70715;SDS011;59053;50.832;12.882;2022-08-07T14:32:04;2.35;;;1.20;;
70715;SDS011;59053;50.832;12.882;2022-08-07T14:34:36;2.13;;;1.27;;
70715;SDS011;59053;50.832;12.882;2022-08-07T14:37:06;2.90;;;1.35;;
70715;SDS011;59053;50.832;12.882;2022-08-07T14:39:35;3.08;;;1.38;;
70715;SDS011;59053;50.832;12.882;2022-08-07T14:42:02;1.40;;;1.30;;
70715;SDS011;59053;50.832;12.882;2022-08-07T14:44:28;2.97;;;1.40;;
70715;SDS011;59053;50.832;12.882;2022-08-07T14:46:57;3.55;;;1.20;;
70715;SDS011;59053;50.832;12.882;2022-08-07T14:49:28;1.40;;;1.23;;
70715;SDS011;59053;50.832;12.882;2022-08-07T14:51:56;2.35;;;1.35;;
70715;SDS011;59053;50.832;12.882;2022-08-07T14:54:22;2.33;;;1.27;;
70715;SDS011;59053;50.832;12.882;2022-08-07T14:56:49;2.15;;;1.30;;
70715;SDS011;59053;50.832;12.882;2022-08-07T14:59:14;1.55;;;1.30;;
70715;SDS011;59053;50.832;12.882;2022-08-07T15:01:45;1.67;;;1.17;;
70715;SDS011;59053;50.832;12.882;2022-08-07T15:04:11;1.73;;;1.25;;
70715;SDS011;59053;50.832;12.882;2022-08-07T15:06:37;1.40;;;1.30;;
70715;SDS011;59053;50.832;12.882;2022-08-07T15:09:09;1.37;;;1.23;;
70715;SDS011;59053;50.832;12.882;2022-08-07T15:11:55;1.77;;;1.30;;
70715;SDS011;59053;50.832;12.882;2022-08-07T15:14:24;3.38;;;1.30;;
70715;SDS011;59053;50.832;12.882;2022-08-07T15:16:57;2.05;;;1.30;;
70715;SDS011;59053;50.832;12.882;2022-08-07T15:19:26;2.00;;;1.40;;
70715;SDS011;59053;50.832;12.882;2022-08-07T15:21:55;1.87;;;1.47;;
70715;SDS011;59053;50.832;12.882;2022-08-07T15:24:31;2.60;;;1.40;;
70715;SDS011;59053;50.832;12.882;2022-08-07T15:29:41;1.50;;;1.30;;
70715;SDS011;59053;50.832;12.882;2022-08-07T15:32:07;1.63;;;1.30;;
70715;SDS011;59053;50.832;12.882;2022-08-07T15:34:34;1.37;;;1.20;;
70715;SDS011;59053;50.832;12.882;2022-08-07T15:37:02;3.85;;;1.45;;
70715;SDS011;59053;50.832;12.882;2022-08-07T15:39:29;1.52;;;1.20;;
70715;SDS011;59053;50.832;12.882;2022-08-07T15:41:59;3.63;;;1.30;;
70715;SDS011;59053;50.832;12.882;2022-08-07T15:44:26;1.40;;;1.17;;
70715;SDS011;59053;50.832;12.882;2022-08-07T15:46:57;3.87;;;1.40;;
70715;SDS011;59053;50.832;12.882;2022-08-07T15:49:29;2.47;;;1.20;;
70715;SDS011;59053;50.832;12.882;2022-08-07T15:51:58;1.35;;;1.02;;
70715;SDS011;59053;50.832;12.882;2022-08-07T15:54:25;1.85;;;1.10;;
70715;SDS011;59053;50.832;12.882;2022-08-07T15:56:57;3.37;;;1.20;;
70715;SDS011;59053;50.832;12.882;2022-08-07T15:59:23;1.40;;;1.30;;
70715;SDS011;59053;50.832;12.882;2022-08-07T16:01:51;2.60;;;1.35;;
70715;SDS011;59053;50.832;12.882;2022-08-07T16:04:18;3.72;;;1.20;;
70715;SDS011;59053;50.832;12.882;2022-08-07T16:06:48;4.25;;;1.20;;
70715;SDS011;59053;50.832;12.882;2022-08-07T16:11:43;2.23;;;1.20;;
70715;SDS011;59053;50.832;12.882;2022-08-07T16:20:01;2.05;;;1.20;;
70715;SDS011;59053;50.832;12.882;2022-08-07T16:23:07;3.08;;;1.20;;
70715;SDS011;59053;50.832;12.882;2022-08-07T16:28:31;1.20;;;1.10;;
70715;SDS011;59053;50.832;12.882;2022-08-07T16:31:17;1.67;;;1.25;;
70715;SDS011;59053;50.832;12.882;2022-08-07T16:33:50;1.30;;;1.20;;
70715;SDS011;59053;50.832;12.882;2022-08-07T16:36:31;1.90;;;1.20;;
70715;SDS011;59053;50.832;12.882;2022-08-07T16:39:11;1.30;;;1.20;;
70715;SDS011;59053;50.832;12.882;2022-08-07T16:41:58;2.80;;;1.27;;
70715;SDS011;59053;50.832;12.882;2022-08-07T16:44:50;3.85;;;1.10;;
70715;SDS011;59053;50.832;12.882;2022-08-07T16:47:25;2.08;;;1.10;;
70715;SDS011;59053;50.832;12.882;2022-08-07T16:50:23;1.17;;;0.88;;
70715;SDS011;59053;50.832;12.882;2022-08-07T16:53:00;2.55;;;1.15;;
70715;SDS011;59053;50.832;12.882;2022-08-07T16:58:17;1.40;;;1.20;;
70715;SDS011;59053;50.832;12.882;2022-08-07T17:00:53;1.80;;;1.00;;
70715;SDS011;59053;50.832;12.882;2022-08-07T17:06:53;2.45;;;1.00;;
70715;SDS011;59053;50.832;12.882;2022-08-07T17:09:25;1.20;;;1.10;;
70715;SDS011;59053;50.832;12.882;2022-08-07T17:11:58;1.38;;;0.98;;
70715;SDS011;59053;50.832;12.882;2022-08-07T17:17:13;1.20;;;0.90;;
70715;SDS011;59053;50.832;12.882;2022-08-07T17:19:44;2.63;;;1.00;;
70715;SDS011;59053;50.832;12.882;2022-08-07T17:22:33;2.83;;;1.00;;
70715;SDS011;59053;50.832;12.882;2022-08-07T17:25:19;1.60;;;1.25;;